Time;durP1;ratioP1;P1;durP2;ratioP2;P2;SDS_P1;SDS_P2;PMS_P1;PMS_P2;Temp;Humidity;BMP_temperature;BMP_pressure;BME280_temperature;BME280_humidity;BME280_pressure;Samples;Min_cycle;Max_cycle;Signal;HPM_P1;HPM_P2
2020/12/02 00:01:02;;;;;;;2.83;2.40;;;;;;;;;;6305632;22;20023;-89
2020/12/02 00:03:37;;;;;;;4.07;2.63;;;;;;;;;;6303110;22;20045;-88
2020/12/02 00:06:05;;;;;;;3.17;2.60;;;;;;;;;;6304166;22;20003;-89
2020/12/02 00:08:31;;;;;;;2.72;2.53;;;;;;;;;;6305844;22;20023;-89
2020/12/02 00:10:59;;;;;;;2.08;1.80;;;;;;;;;;6303778;22;20014;-90
2020/12/02 00:13:28;;;;;;;1.95;1.85;;;;;;;;;;6305486;22;20007;-89
2020/12/02 00:15:54;;;;;;;2.10;1.80;;;;;;;;;;6305441;22;20010;-89
2020/12/02 00:18:20;;;;;;;2.45;2.00;;;;;;;;;;6306285;22;20010;-89
2020/12/02 00:20:47;;;;;;;3.80;2.28;;;;;;;;;;6304235;22;20049;-89
2020/12/02 00:23:13;;;;;;;3.00;1.88;;;;;;;;;;6303769;22;20373;-89
2020/12/02 00:25:39;;;;;;;3.28;2.10;;;;;;;;;;6303698;22;20087;-89
2020/12/02 00:28:06;;;;;;;1.80;1.70;;;;;;;;;;6304300;22;20446;-88
2020/12/02 00:30:35;;;;;;;3.40;1.77;;;;;;;;;;6304361;22;20049;-89
2020/12/02 00:33:28;;;;;;;2.90;1.83;;;;;;;;;;6303395;22;20022;-88
2020/12/02 00:35:54;;;;;;;2.20;1.75;;;;;;;;;;6300158;22;20007;-88
2020/12/02 00:38:21;;;;;;;1.92;1.70;;;;;;;;;;6303980;22;20011;-88
2020/12/02 00:40:48;;;;;;;2.30;2.05;;;;;;;;;;6305078;22;20021;-89
2020/12/02 00:43:18;;;;;;;2.85;1.98;;;;;;;;;;6305415;22;20487;-89
2020/12/02 00:45:44;;;;;;;1.45;1.35;;;;;;;;;;6303546;22;20090;-89
2020/12/02 00:48:12;;;;;;;3.70;1.52;;;;;;;;;;6305396;22;19999;-89
2020/12/02 00:50:38;;;;;;;1.75;1.65;;;;;;;;;;6303896;22;20003;-89
2020/12/02 00:53:06;;;;;;;5.45;2.83;;;;;;;;;;6305216;22;20000;-89
2020/12/02 00:55:32;;;;;;;2.80;1.63;;;;;;;;;;6303654;22;19999;-89
2020/12/02 00:57:58;;;;;;;3.30;1.95;;;;;;;;;;6303864;22;20447;-89
2020/12/02 01:00:27;;;;;;;1.73;1.63;;;;;;;;;;6305718;22;20357;-89
2020/12/02 01:03:19;;;;;;;2.22;1.92;;;;;;;;;;6303335;22;20078;-89
2020/12/02 01:05:46;;;;;;;1.63;1.52;;;;;;;;;;6300527;22;20004;-89
2020/12/02 01:08:17;;;;;;;1.60;1.35;;;;;;;;;;6304223;22;20098;-89
2020/12/02 01:10:44;;;;;;;1.98;1.75;;;;;;;;;;6305549;22;19995;-89
2020/12/02 01:13:10;;;;;;;1.70;1.60;;;;;;;;;;6303638;22;19995;-89
2020/12/02 01:15:36;;;;;;;2.05;1.35;;;;;;;;;;6303554;22;20060;-89
2020/12/02 01:18:29;;;;;;;2.20;1.80;;;;;;;;;;6303734;22;20006;-88
2020/12/02 01:21:00;;;;;;;2.42;1.63;;;;;;;;;;6296790;22;20010;-88
2020/12/02 01:23:26;;;;;;;1.95;1.73;;;;;;;;;;6303392;22;19999;-88
2020/12/02 01:25:53;;;;;;;2.60;1.63;;;;;;;;;;6303588;22;20038;-88
2020/12/02 01:28:22;;;;;;;2.47;2.17;;;;;;;;;;6305590;22;20057;-90
2020/12/02 01:30:48;;;;;;;1.98;1.80;;;;;;;;;;6303539;22;20053;-89
2020/12/02 01:33:15;;;;;;;2.33;2.13;;;;;;;;;;6304313;22;20015;-89
2020/12/02 01:35:43;;;;;;;2.13;1.50;;;;;;;;;;6303080;22;20018;-89
2020/12/02 01:38:09;;;;;;;1.77;1.67;;;;;;;;;;6303545;22;20052;-89
2020/12/02 01:40:36;;;;;;;1.88;1.63;;;;;;;;;;6303444;22;20003;-89
2020/12/02 01:43:04;;;;;;;1.67;1.52;;;;;;;;;;6305227;22;20006;-89
2020/12/02 01:45:41;;;;;;;5.22;1.90;;;;;;;;;;6304650;22;19995;-89
2020/12/02 01:48:13;;;;;;;2.03;1.60;;;;;;;;;;6305149;22;19999;-88
2020/12/02 01:50:59;;;;;;;1.67;1.42;;;;;;;;;;6305315;22;20089;-89
2020/12/02 01:53:58;;;;;;;1.65;1.55;;;;;;;;;;6304483;22;20469;-89
2020/12/02 01:56:53;;;;;;;1.65;1.35;;;;;;;;;;6220536;22;20003;-89
2020/12/02 01:59:26;;;;;;;2.83;1.23;;;;;;;;;;6271619;22;20007;-88
2020/12/02 02:02:07;;;;;;;3.08;1.67;;;;;;;;;;6303347;22;20010;-89
2020/12/02 02:04:37;;;;;;;2.40;1.95;;;;;;;;;;6302356;22;20003;-89
2020/12/02 02:07:06;;;;;;;2.13;1.60;;;;;;;;;;6305268;22;20034;-89
2020/12/02 02:09:33;;;;;;;1.85;1.75;;;;;;;;;;6303545;22;20027;-89
2020/12/02 02:12:18;;;;;;;1.85;1.70;;;;;;;;;;6304545;22;20003;-89
2020/12/02 02:14:48;;;;;;;2.17;1.60;;;;;;;;;;6304379;22;20003;-89
2020/12/02 02:17:14;;;;;;;2.75;2.20;;;;;;;;;;6303104;22;20003;-89
2020/12/02 02:19:40;;;;;;;1.70;1.55;;;;;;;;;;6302558;22;20000;-88
2020/12/02 02:22:06;;;;;;;2.08;1.88;;;;;;;;;;6302457;22;20009;-89
2020/12/02 02:24:32;;;;;;;2.58;1.80;;;;;;;;;;6302748;22;20384;-88
2020/12/02 02:26:59;;;;;;;2.13;1.77;;;;;;;;;;6302897;22;20014;-89
2020/12/02 02:29:25;;;;;;;2.13;1.83;;;;;;;;;;6303793;22;20455;-89
2020/12/02 02:31:51;;;;;;;2.08;1.70;;;;;;;;;;6302825;22;20098;-89
2020/12/02 02:34:17;;;;;;;2.13;1.92;;;;;;;;;;6302111;22;20469;-88
2020/12/02 02:36:43;;;;;;;1.85;1.73;;;;;;;;;;6302879;22;20439;-88
2020/12/02 02:39:10;;;;;;;2.40;2.08;;;;;;;;;;6303340;22;20035;-88
2020/12/02 02:41:36;;;;;;;1.90;1.70;;;;;;;;;;6302930;22;20007;-89
2020/12/02 02:44:03;;;;;;;1.55;1.45;;;;;;;;;;6302927;22;20122;-90
2020/12/02 02:46:29;;;;;;;2.63;2.25;;;;;;;;;;6303468;22;20036;-89
2020/12/02 02:48:55;;;;;;;1.35;1.25;;;;;;;;;;6303084;22;20007;-89
2020/12/02 02:51:21;;;;;;;2.47;2.08;;;;;;;;;;6304972;22;19999;-89
2020/12/02 02:53:48;;;;;;;2.28;2.08;;;;;;;;;;6304383;22;20078;-89
2020/12/02 02:56:14;;;;;;;1.85;1.75;;;;;;;;;;6303093;22;20064;-89
2020/12/02 02:58:41;;;;;;;2.03;1.35;;;;;;;;;;6303377;22;19996;-89
2020/12/02 03:01:07;;;;;;;1.70;1.60;;;;;;;;;;6302737;22;20395;-89
2020/12/02 03:03:33;;;;;;;1.83;1.60;;;;;;;;;;6301720;22;20090;-90
2020/12/02 03:06:00;;;;;;;2.00;1.58;;;;;;;;;;6304532;22;20439;-89
2020/12/02 03:08:27;;;;;;;1.50;1.40;;;;;;;;;;6304917;22;20056;-89
2020/12/02 03:10:54;;;;;;;1.67;1.50;;;;;;;;;;6305072;22;20003;-89
2020/12/02 03:13:31;;;;;;;2.08;1.92;;;;;;;;;;6302820;22;20011;-90
2020/12/02 03:15:58;;;;;;;1.65;1.55;;;;;;;;;;6302961;22;20003;-89
2020/12/02 03:18:25;;;;;;;2.08;1.98;;;;;;;;;;6302873;22;20010;-89
2020/12/02 03:20:53;;;;;;;2.30;2.20;;;;;;;;;;6304533;22;20462;-89
2020/12/02 03:23:20;;;;;;;1.60;1.50;;;;;;;;;;6304444;22;20365;-89
2020/12/02 03:25:46;;;;;;;1.42;1.33;;;;;;;;;;6302928;22;20007;-89
2020/12/02 03:28:12;;;;;;;3.42;2.10;;;;;;;;;;6302926;22;20003;-90
2020/12/02 03:30:39;;;;;;;1.88;1.77;;;;;;;;;;6304258;22;20230;-89
2020/12/02 03:33:06;;;;;;;2.58;1.70;;;;;;;;;;6302054;22;20011;-88
2020/12/02 03:35:32;;;;;;;1.52;1.40;;;;;;;;;;6303349;22;20446;-88
2020/12/02 03:37:58;;;;;;;2.40;2.20;;;;;;;;;;6305085;22;20438;-89
2020/12/02 03:40:24;;;;;;;1.75;1.30;;;;;;;;;;6302952;22;20400;-90
2020/12/02 03:42:51;;;;;;;2.13;1.70;;;;;;;;;;6302732;22;20435;-89
2020/12/02 03:45:17;;;;;;;3.22;2.00;;;;;;;;;;6303031;22;20094;-88
2020/12/02 03:47:44;;;;;;;2.00;1.80;;;;;;;;;;6302976;22;19999;-88
2020/12/02 03:50:11;;;;;;;2.67;2.47;;;;;;;;;;6303051;22;20000;-89
2020/12/02 03:52:37;;;;;;;2.20;1.63;;;;;;;;;;6304587;22;20023;-89
2020/12/02 03:55:04;;;;;;;2.38;1.55;;;;;;;;;;6304828;22;19996;-89
2020/12/02 03:57:30;;;;;;;1.98;1.88;;;;;;;;;;6302585;22;20035;-89
2020/12/02 03:59:56;;;;;;;2.50;2.13;;;;;;;;;;6303029;22;20010;-89
2020/12/02 04:02:22;;;;;;;2.38;1.95;;;;;;;;;;6302423;22;20031;-89
2020/12/02 04:04:48;;;;;;;1.70;1.60;;;;;;;;;;6302126;22;20003;-90
2020/12/02 04:07:14;;;;;;;1.80;1.70;;;;;;;;;;6303066;22;20573;-88
2020/12/02 04:09:40;;;;;;;4.63;2.13;;;;;;;;;;6304287;22;20056;-89
2020/12/02 04:12:07;;;;;;;1.60;1.40;;;;;;;;;;6302637;22;20347;-89
2020/12/02 04:14:33;;;;;;;2.10;1.50;;;;;;;;;;6302531;22;20526;-89
2020/12/02 04:16:59;;;;;;;2.42;2.22;;;;;;;;;;6304297;22;20007;-89
2020/12/02 04:19:25;;;;;;;2.65;2.45;;;;;;;;;;6306495;22;20018;-89
2020/12/02 04:21:54;;;;;;;1.95;1.80;;;;;;;;;;6303839;22;20465;-89
2020/12/02 04:24:20;;;;;;;1.67;1.42;;;;;;;;;;6304750;22;20336;-88
2020/12/02 04:26:46;;;;;;;1.63;1.25;;;;;;;;;;6305100;22;20039;-89
2020/12/02 04:29:13;;;;;;;1.50;1.40;;;;;;;;;;6304645;22;20014;-89
2020/12/02 04:31:39;;;;;;;2.05;1.65;;;;;;;;;;6303990;22;20045;-89
2020/12/02 04:34:05;;;;;;;2.53;1.45;;;;;;;;;;6305546;22;20010;-89
2020/12/02 04:36:31;;;;;;;1.38;1.23;;;;;;;;;;6304036;22;20144;-89
2020/12/02 04:38:57;;;;;;;2.78;2.50;;;;;;;;;;6304134;22;20003;-89
2020/12/02 04:41:23;;;;;;;4.80;1.50;;;;;;;;;;6303878;22;20003;-89
2020/12/02 04:43:50;;;;;;;1.73;1.48;;;;;;;;;;6304480;22;20026;-89
2020/12/02 04:46:22;;;;;;;2.33;1.95;;;;;;;;;;6303975;22;20018;-89
2020/12/02 04:49:00;;;;;;;2.45;1.95;;;;;;;;;;6306283;22;20060;-89
2020/12/02 04:51:28;;;;;;;2.88;2.28;;;;;;;;;;6304102;22;20003;-90
2020/12/02 04:53:56;;;;;;;2.78;1.65;;;;;;;;;;6305499;22;20026;-89
2020/12/02 04:56:25;;;;;;;2.63;2.03;;;;;;;;;;6304008;22;20439;-88
2020/12/02 04:58:51;;;;;;;6.35;2.70;;;;;;;;;;6304624;22;20396;-89
2020/12/02 05:01:29;;;;;;;1.60;1.33;;;;;;;;;;6305583;22;20006;-89
2020/12/02 05:03:58;;;;;;;3.30;1.55;;;;;;;;;;6305125;22;19999;-90
2020/12/02 05:06:30;;;;;;;2.08;1.77;;;;;;;;;;6305683;22;20003;-89
2020/12/02 05:09:07;;;;;;;1.13;1.02;;;;;;;;;;6305737;22;20003;-88
2020/12/02 05:11:33;;;;;;;1.77;1.58;;;;;;;;;;6303771;22;20435;-88
2020/12/02 05:14:05;;;;;;;2.65;1.73;;;;;;;;;;6303647;22;20434;-88
2020/12/02 05:16:32;;;;;;;4.10;2.38;;;;;;;;;;6305480;22;20011;-89
2020/12/02 05:18:59;;;;;;;3.33;2.33;;;;;;;;;;6304054;22;20007;-89
2020/12/02 05:21:30;;;;;;;2.28;1.52;;;;;;;;;;6303418;22;20010;-88
2020/12/02 05:24:02;;;;;;;2.10;1.77;;;;;;;;;;6303634;22;20003;-89
2020/12/02 05:26:30;;;;;;;1.15;1.08;;;;;;;;;;6303525;22;20010;-89
2020/12/02 05:28:56;;;;;;;1.92;1.38;;;;;;;;;;6303644;22;20434;-89
2020/12/02 05:31:27;;;;;;;1.40;1.30;;;;;;;;;;6305304;22;20006;-88
2020/12/02 05:33:53;;;;;;;2.83;1.67;;;;;;;;;;6303040;22;20034;-90
2020/12/02 05:36:23;;;;;;;1.42;1.20;;;;;;;;;;6303704;22;19999;-90
2020/12/02 05:39:06;;;;;;;1.60;1.50;;;;;;;;;;6305685;22;20009;-89
2020/12/02 05:41:34;;;;;;;2.70;1.50;;;;;;;;;;6305100;22;20026;-90
2020/12/02 05:44:03;;;;;;;2.83;1.67;;;;;;;;;;6303424;22;20007;-89
2020/12/02 05:46:49;;;;;;;1.35;1.15;;;;;;;;;;6305071;22;20457;-90
2020/12/02 05:49:27;;;;;;;2.55;1.33;;;;;;;;;;6303629;22;20055;-89
2020/12/02 05:51:53;;;;;;;1.60;1.50;;;;;;;;;;6305187;22;20274;-89
2020/12/02 05:54:21;;;;;;;2.55;1.80;;;;;;;;;;6303287;22;20003;-89
2020/12/02 05:56:48;;;;;;;2.70;2.15;;;;;;;;;;6302799;22;20100;-89
2020/12/02 05:59:16;;;;;;;1.25;1.15;;;;;;;;;;6303790;22;20543;-89
2020/12/02 06:01:42;;;;;;;1.50;1.40;;;;;;;;;;6303747;22;20007;-89
2020/12/02 06:04:11;;;;;;;1.33;1.23;;;;;;;;;;6302634;22;20343;-88
2020/12/02 06:06:37;;;;;;;1.55;1.10;;;;;;;;;;6303662;22;20259;-88
2020/12/02 06:09:03;;;;;;;1.13;1.08;;;;;;;;;;6303320;22;20007;-90
2020/12/02 06:11:34;;;;;;;1.50;1.35;;;;;;;;;;6303483;22;20004;-89
2020/12/02 06:14:02;;;;;;;1.80;1.67;;;;;;;;;;6302844;22;20010;-90
2020/12/02 06:16:40;;;;;;;2.55;1.80;;;;;;;;;;6304524;22;20090;-88
2020/12/02 06:19:25;;;;;;;1.88;1.77;;;;;;;;;;6304860;22;19999;-89
2020/12/02 06:22:01;;;;;;;2.15;1.83;;;;;;;;;;6303178;22;20003;-88
2020/12/02 06:24:27;;;;;;;1.38;1.27;;;;;;;;;;6302934;22;20007;-89
2020/12/02 06:26:53;;;;;;;1.23;1.13;;;;;;;;;;6302972;22;20014;-88
2020/12/02 06:29:31;;;;;;;1.77;1.55;;;;;;;;;;6303332;22;20011;-88
2020/12/02 06:31:59;;;;;;;1.63;1.35;;;;;;;;;;6302493;22;20423;-89
2020/12/02 06:34:27;;;;;;;1.40;1.23;;;;;;;;;;6302005;22;20010;-89
2020/12/02 06:37:11;;;;;;;2.38;1.73;;;;;;;;;;6303138;22;20014;-89
2020/12/02 06:39:38;;;;;;;1.52;1.40;;;;;;;;;;6302729;22;20078;-89
2020/12/02 06:42:25;;;;;;;1.63;1.48;;;;;;;;;;6304386;22;20002;-90
2020/12/02 06:44:54;;;;;;;1.40;1.30;;;;;;;;;;6302894;22;20003;-89
2020/12/02 06:47:23;;;;;;;2.13;1.80;;;;;;;;;;6302219;22;20090;-89
2020/12/02 06:49:51;;;;;;;1.27;1.17;;;;;;;;;;6303493;22;20013;-88
2020/12/02 06:52:28;;;;;;;5.68;3.38;;;;;;;;;;6302901;22;20343;-89
2020/12/02 06:55:03;;;;;;;5.30;4.13;;;;;;;;;;6305110;22;20000;-89
2020/12/02 06:57:30;;;;;;;7.68;4.20;;;;;;;;;;6304751;22;20027;-89
2020/12/02 06:59:58;;;;;;;4.57;3.92;;;;;;;;;;6304091;22;20438;-89
2020/12/02 07:02:36;;;;;;;4.95;3.47;;;;;;;;;;6304963;22;20003;-89
2020/12/02 07:05:05;;;;;;;2.70;2.50;;;;;;;;;;6305477;22;20000;-90
2020/12/02 07:07:31;;;;;;;3.75;3.40;;;;;;;;;;6307136;22;19999;-90
2020/12/02 07:09:57;;;;;;;3.95;3.58;;;;;;;;;;6305493;22;20014;-91
2020/12/02 07:12:23;;;;;;;4.05;2.17;;;;;;;;;;6305506;22;20011;-91
2020/12/02 07:14:50;;;;;;;6.63;3.30;;;;;;;;;;6307096;22;20000;-89
2020/12/02 07:17:20;;;;;;;3.28;2.80;;;;;;;;;;6305487;22;20011;-89
2020/12/02 07:19:48;;;;;;;4.15;2.50;;;;;;;;;;6305238;22;20335;-88
2020/12/02 07:22:31;;;;;;;3.08;2.85;;;;;;;;;;6304165;22;20090;-90
2020/12/02 07:25:01;;;;;;;2.60;2.40;;;;;;;;;;6306644;22;20435;-90
2020/12/02 07:27:27;;;;;;;3.70;3.17;;;;;;;;;;6305006;22;20027;-90
2020/12/02 07:30:02;;;;;;;6.35;2.25;;;;;;;;;;6305749;22;20089;-91
2020/12/02 07:32:28;;;;;;;4.07;3.47;;;;;;;;;;6302043;22;20027;-90
2020/12/02 07:35:01;;;;;;;4.22;3.33;;;;;;;;;;6304364;22;20060;-89
2020/12/02 07:37:27;;;;;;;5.43;3.50;;;;;;;;;;6304536;22;20461;-91
2020/12/02 07:40:01;;;;;;;7.15;4.38;;;;;;;;;;6306665;22;20340;-87
2020/12/02 07:42:28;;;;;;;;;;;;;;;;;;6306391;22;20003;-90
2020/12/02 07:45:03;;;;;;;6.60;3.67;;;;;;;;;;6305924;22;19921;-89
2020/12/02 07:47:29;;;;;;;8.23;3.72;;;;;;;;;;6307446;22;20082;-88
2020/12/02 07:50:07;;;;;;;5.40;3.47;;;;;;;;;;6306039;22;20054;-89
2020/12/02 07:52:38;;;;;;;5.60;4.45;;;;;;;;;;6307359;22;20090;-89
2020/12/02 07:55:06;;;;;;;5.50;3.15;;;;;;;;;;6308177;22;20007;-87
2020/12/02 07:57:34;;;;;;;3.67;2.95;;;;;;;;;;6305680;22;20004;-88
2020/12/02 08:00:23;;;;;;;2.92;2.63;;;;;;;;;;6306895;22;20004;-89
2020/12/02 08:02:50;;;;;;;3.22;2.80;;;;;;;;;;6292839;22;19999;-88
2020/12/02 08:05:43;;;;;;;2.67;2.22;;;;;;;;;;6307188;22;20087;-88
2020/12/02 08:08:09;;;;;;;5.22;2.30;;;;;;;;;;6309703;22;20003;-90
2020/12/02 08:10:36;;;;;;;4.63;3.08;;;;;;;;;;6312245;22;20433;-89
2020/12/02 08:13:03;;;;;;;2.85;2.55;;;;;;;;;;6312461;22;20375;-85
2020/12/02 08:15:30;;;;;;;2.38;2.17;;;;;;;;;;6309031;22;20049;-89
2020/12/02 08:18:22;;;;;;;3.92;2.45;;;;;;;;;;6311687;22;20304;-88
2020/12/02 08:20:48;;;;;;;6.22;2.55;;;;;;;;;;6304315;22;20007;-87
2020/12/02 08:23:17;;;;;;;5.40;3.63;;;;;;;;;;6308240;22;20459;-89
2020/12/02 08:26:07;;;;;;;5.43;2.80;;;;;;;;;;6307142;22;20003;-89
2020/12/02 08:28:34;;;;;;;4.50;2.20;;;;;;;;;;6288671;22;20004;-88
2020/12/02 08:31:21;;;;;;;4.15;2.22;;;;;;;;;;6307091;22;20085;-89
2020/12/02 08:34:05;;;;;;;2.45;2.25;;;;;;;;;;6307152;22;20015;-89
2020/12/02 08:36:31;;;;;;;4.65;3.45;;;;;;;;;;6307115;22;20011;-88
2020/12/02 08:38:57;;;;;;;3.15;1.92;;;;;;;;;;6308989;22;20014;-89
2020/12/02 08:41:24;;;;;;;4.43;2.65;;;;;;;;;;6309789;22;20074;-90
2020/12/02 08:43:50;;;;;;;6.95;3.00;;;;;;;;;;6309482;22;19999;-89
2020/12/02 08:46:18;;;;;;;7.28;3.78;;;;;;;;;;6306980;22;20060;-87
2020/12/02 08:48:46;;;;;;;4.75;2.50;;;;;;;;;;6306764;22;20011;-85
2020/12/02 08:51:15;;;;;;;3.03;2.40;;;;;;;;;;6308426;22;20003;-86
2020/12/02 08:53:41;;;;;;;3.10;2.65;;;;;;;;;;6308100;22;20010;-85
2020/12/02 08:56:21;;;;;;;4.63;3.45;;;;;;;;;;6306420;22;20034;-85
2020/12/02 08:58:47;;;;;;;5.10;3.72;;;;;;;;;;6308006;22;20011;-85
2020/12/02 09:01:13;;;;;;;5.43;2.95;;;;;;;;;;6306368;22;20031;-86
2020/12/02 09:03:39;;;;;;;4.60;3.10;;;;;;;;;;6309737;22;19999;-86
2020/12/02 09:06:05;;;;;;;7.22;4.35;;;;;;;;;;6306456;22;20007;-86
2020/12/02 09:08:31;;;;;;;6.50;3.40;;;;;;;;;;6307198;22;20006;-86
2020/12/02 09:10:57;;;;;;;7.15;3.92;;;;;;;;;;6308021;22;20007;-85
2020/12/02 09:13:23;;;;;;;4.43;3.40;;;;;;;;;;6306952;22;20008;-85
2020/12/02 09:15:50;;;;;;;3.20;2.63;;;;;;;;;;6305183;22;20090;-89
2020/12/02 09:18:16;;;;;;;4.63;3.97;;;;;;;;;;6305618;22;20465;-86
2020/12/02 09:20:42;;;;;;;10.30;4.80;;;;;;;;;;6306195;22;20073;-85
2020/12/02 09:23:08;;;;;;;4.97;3.03;;;;;;;;;;6304673;22;20009;-86
2020/12/02 09:25:34;;;;;;;3.40;2.67;;;;;;;;;;6305833;22;20006;-87
2020/12/02 09:28:00;;;;;;;5.03;3.35;;;;;;;;;;6308333;22;20120;-87
2020/12/02 09:30:26;;;;;;;4.15;2.35;;;;;;;;;;6305387;22;20011;-86
2020/12/02 09:32:52;;;;;;;4.30;2.65;;;;;;;;;;6305590;22;20029;-87
2020/12/02 09:35:20;;;;;;;3.20;2.55;;;;;;;;;;6306203;22;20068;-90
2020/12/02 09:37:46;;;;;;;3.40;2.20;;;;;;;;;;6307035;22;20087;-86
2020/12/02 09:40:13;;;;;;;4.47;2.40;;;;;;;;;;6305743;22;20003;-86
2020/12/02 09:42:55;;;;;;;6.03;3.15;;;;;;;;;;6304611;22;20007;-87
2020/12/02 09:45:39;;;;;;;5.90;3.15;;;;;;;;;;6305970;22;20003;-86
2020/12/02 09:48:10;;;;;;;4.47;2.55;;;;;;;;;;6306723;22;20372;-87
2020/12/02 09:50:36;;;;;;;6.25;2.90;;;;;;;;;;6307760;22;20010;-86
2020/12/02 09:53:08;;;;;;;4.45;2.03;;;;;;;;;;6302796;22;20007;-88
2020/12/02 09:55:34;;;;;;;3.25;2.42;;;;;;;;;;6307130;22;20078;-87
2020/12/02 09:58:00;;;;;;;3.22;2.65;;;;;;;;;;6303516;22;20003;-87
2020/12/02 10:00:26;;;;;;;4.57;2.58;;;;;;;;;;6307083;22;20000;-90
2020/12/02 10:03:11;;;;;;;4.47;1.83;;;;;;;;;;6302615;22;20015;-89
2020/12/02 10:05:46;;;;;;;6.07;2.42;;;;;;;;;;6303990;22;20004;-88
2020/12/02 10:08:18;;;;;;;4.60;3.08;;;;;;;;;;6300825;22;20178;-90
2020/12/02 10:10:47;;;;;;;14.35;3.47;;;;;;;;;;6305359;22;20086;-88
2020/12/02 10:13:35;;;;;;;5.28;1.95;;;;;;;;;;6303154;22;20003;-88
2020/12/02 10:16:14;;;;;;;3.42;1.88;;;;;;;;;;6301525;22;20114;-88
2020/12/02 10:18:49;;;;;;;2.70;2.00;;;;;;;;;;6305440;22;20021;-87
2020/12/02 10:21:33;;;;;;;9.02;3.38;;;;;;;;;;6304223;22;20430;-86
2020/12/02 10:23:59;;;;;;;3.80;2.03;;;;;;;;;;6304420;22;20010;-86
2020/12/02 10:26:43;;;;;;;5.00;1.95;;;;;;;;;;6306644;22;20074;-86
2020/12/02 10:29:13;;;;;;;1.30;1.20;;;;;;;;;;6303947;22;20653;-85
2020/12/02 10:31:57;;;;;;;2.30;2.10;;;;;;;;;;6304944;22;20007;-87
2020/12/02 10:34:27;;;;;;;2.58;2.00;;;;;;;;;;6303698;22;20002;-85
2020/12/02 10:36:58;;;;;;;6.00;2.80;;;;;;;;;;6305100;22;20010;-85
2020/12/02 10:39:27;;;;;;;7.13;2.47;;;;;;;;;;6304230;22;20026;-86
2020/12/02 10:42:12;;;;;;;5.63;2.30;;;;;;;;;;6306327;22;19995;-88
2020/12/02 10:45:02;;;;;;;7.50;2.70;;;;;;;;;;6304239;22;20003;-88
2020/12/02 10:47:34;;;;;;;9.38;2.97;;;;;;;;;;6289922;22;20379;-86
2020/12/02 10:50:00;;;;;;;9.48;2.42;;;;;;;;;;6305706;22;20435;-85
2020/12/02 10:52:26;;;;;;;7.10;2.67;;;;;;;;;;6305579;22;20060;-86
2020/12/02 10:54:53;;;;;;;10.05;2.42;;;;;;;;;;6303104;22;20102;-87
2020/12/02 10:57:21;;;;;;;6.85;2.65;;;;;;;;;;6303550;22;20003;-88
2020/12/02 10:59:50;;;;;;;9.80;2.38;;;;;;;;;;6303067;22;20048;-87
2020/12/02 11:02:23;;;;;;;11.00;3.17;;;;;;;;;;6304633;22;20010;-87
2020/12/02 11:04:49;;;;;;;7.85;2.88;;;;;;;;;;6302392;22;19999;-87
2020/12/02 11:07:34;;;;;;;12.57;3.42;;;;;;;;;;6306075;22;20007;-87
2020/12/02 11:10:10;;;;;;;10.68;2.65;;;;;;;;;;6307170;22;20004;-85
2020/12/02 11:12:48;;;;;;;6.38;2.28;;;;;;;;;;6302956;22;20003;-86
2020/12/02 11:15:23;;;;;;;9.15;2.67;;;;;;;;;;6301498;22;20079;-87
2020/12/02 11:17:55;;;;;;;9.30;2.63;;;;;;;;;;6303721;22;20007;-86
2020/12/02 11:20:54;;;;;;;5.57;3.80;;;;;;;;;;6304029;22;20061;-88
2020/12/02 11:23:39;;;;;;;3.78;2.70;;;;;;;;;;6219951;22;20019;-89
2020/12/02 11:26:05;;;;;;;6.85;2.80;;;;;;;;;;6308227;22;20001;-89
2020/12/02 11:28:31;;;;;;;7.88;2.40;;;;;;;;;;6305400;22;20002;-88
2020/12/02 11:31:02;;;;;;;5.78;2.35;;;;;;;;;;6305966;22;19995;-85
2020/12/02 11:34:01;;;;;;;6.47;2.90;;;;;;;;;;6305405;22;20094;-86
2020/12/02 11:36:30;;;;;;;6.47;4.22;;;;;;;;;;6222646;22;20072;-86
2020/12/02 11:39:15;;;;;;;9.07;3.10;;;;;;;;;;6307747;22;20320;-86
2020/12/02 11:41:44;;;;;;;7.70;3.30;;;;;;;;;;6306756;22;20003;-87
2020/12/02 11:44:15;;;;;;;5.15;3.22;;;;;;;;;;6306900;22;19999;-85
2020/12/02 11:46:44;;;;;;;5.53;3.20;;;;;;;;;;6307153;22;20018;-85
2020/12/02 11:49:15;;;;;;;4.25;3.55;;;;;;;;;;6306678;22;20014;-85
2020/12/02 11:51:59;;;;;;;6.68;4.43;;;;;;;;;;6308510;22;20030;-85
2020/12/02 11:54:25;;;;;;;20.40;4.05;;;;;;;;;;6306755;22;20035;-85
2020/12/02 11:56:53;;;;;;;11.10;3.70;;;;;;;;;;6306011;22;20007;-86
2020/12/02 11:59:22;;;;;;;6.07;3.42;;;;;;;;;;6306282;22;20010;-86
2020/12/02 12:01:52;;;;;;;4.25;3.75;;;;;;;;;;6306436;22;20018;-85
2020/12/02 12:04:30;;;;;;;6.28;3.53;;;;;;;;;;6304550;22;20039;-86
2020/12/02 12:06:58;;;;;;;8.25;4.97;;;;;;;;;;6307854;22;20003;-85
2020/12/02 12:09:34;;;;;;;7.60;3.75;;;;;;;;;;6307839;22;20062;-85
2020/12/02 12:12:04;;;;;;;6.75;3.53;;;;;;;;;;6306163;22;20007;-84
2020/12/02 12:14:39;;;;;;;6.28;4.28;;;;;;;;;;6305685;22;20047;-84
2020/12/02 12:17:05;;;;;;;4.88;4.25;;;;;;;;;;6307600;22;20000;-85
2020/12/02 12:19:50;;;;;;;7.60;5.43;;;;;;;;;;6308807;22;20319;-84
2020/12/02 12:22:16;;;;;;;10.20;4.40;;;;;;;;;;6307951;22;20004;-84
2020/12/02 12:24:45;;;;;;;5.30;4.38;;;;;;;;;;6307507;22;20003;-86
2020/12/02 12:27:12;;;;;;;8.43;3.97;;;;;;;;;;6307420;22;20010;-84
2020/12/02 12:29:38;;;;;;;8.90;4.68;;;;;;;;;;6308589;22;20033;-84
2020/12/02 12:32:10;;;;;;;11.38;5.82;;;;;;;;;;6307741;22;20011;-84
2020/12/02 12:34:41;;;;;;;6.30;3.83;;;;;;;;;;6306516;22;20003;-85
2020/12/02 12:37:13;;;;;;;14.27;4.60;;;;;;;;;;6305896;22;20011;-85
2020/12/02 12:39:41;;;;;;;7.38;3.80;;;;;;;;;;6306775;22;19999;-86
2020/12/02 12:42:11;;;;;;;5.22;3.97;;;;;;;;;;6307002;22;20006;-86
2020/12/02 12:44:38;;;;;;;5.25;4.22;;;;;;;;;;6306728;22;20002;-85
2020/12/02 12:47:23;;;;;;;4.88;3.40;;;;;;;;;;6306455;22;20014;-85
2020/12/02 12:49:49;;;;;;;4.55;3.88;;;;;;;;;;6306407;22;20007;-85
2020/12/02 12:52:18;;;;;;;8.95;4.25;;;;;;;;;;6308634;22;20007;-84
2020/12/02 12:54:44;;;;;;;5.05;4.05;;;;;;;;;;6307007;22;20334;-85
2020/12/02 12:57:15;;;;;;;7.72;3.92;;;;;;;;;;6306585;22;20014;-85
2020/12/02 12:59:42;;;;;;;7.15;3.47;;;;;;;;;;6301326;22;20030;-84
2020/12/02 13:02:16;;;;;;;6.25;3.08;;;;;;;;;;6301070;22;20083;-88
2020/12/02 13:04:43;;;;;;;4.28;2.72;;;;;;;;;;6303577;22;20081;-89
2020/12/02 13:07:15;;;;;;;11.18;4.47;;;;;;;;;;6305039;22;20099;-89
2020/12/02 13:09:56;;;;;;;3.58;2.67;;;;;;;;;;6305293;22;20079;-87
2020/12/02 13:12:25;;;;;;;5.25;4.30;;;;;;;;;;6304286;22;20069;-85
2020/12/02 13:14:51;;;;;;;11.68;4.50;;;;;;;;;;6304304;22;20064;-87
2020/12/02 13:17:22;;;;;;;6.93;4.00;;;;;;;;;;6304954;22;20007;-86
2020/12/02 13:20:18;;;;;;;5.60;3.10;;;;;;;;;;6305982;22;20060;-87
2020/12/02 13:22:53;;;;;;;7.53;3.38;;;;;;;;;;6270593;22;20014;-86
2020/12/02 13:25:21;;;;;;;4.85;2.75;;;;;;;;;;6303324;22;20003;-86
2020/12/02 13:27:53;;;;;;;4.80;2.97;;;;;;;;;;6305757;22;19999;-86
2020/12/02 13:30:46;;;;;;;8.32;3.28;;;;;;;;;;6306464;22;20029;-86
2020/12/02 13:33:18;;;;;;;6.13;3.25;;;;;;;;;;6257166;22;20098;-87
2020/12/02 13:35:46;;;;;;;4.05;2.13;;;;;;;;;;6305147;22;20417;-87
2020/12/02 13:38:14;;;;;;;4.70;2.45;;;;;;;;;;6304142;22;20594;-86
2020/12/02 13:40:41;;;;;;;5.13;2.50;;;;;;;;;;6304152;22;20010;-87
2020/12/02 13:43:07;;;;;;;2.63;2.42;;;;;;;;;;6301396;22;20083;-85
2020/12/02 13:45:34;;;;;;;4.47;2.63;;;;;;;;;;6305357;22;20000;-87
2020/12/02 13:48:04;;;;;;;5.13;2.88;;;;;;;;;;6303788;22;20004;-87
2020/12/02 13:50:31;;;;;;;8.27;3.75;;;;;;;;;;6303998;22;20003;-86
2020/12/02 13:53:01;;;;;;;5.95;2.95;;;;;;;;;;6305224;22;20009;-86
2020/12/02 13:55:33;;;;;;;5.38;2.42;;;;;;;;;;6304051;22;20011;-86
2020/12/02 13:58:08;;;;;;;3.75;2.08;;;;;;;;;;6305968;22;20035;-86
2020/12/02 14:00:34;;;;;;;2.78;2.20;;;;;;;;;;6306680;22;20087;-87
2020/12/02 14:03:10;;;;;;;4.45;2.55;;;;;;;;;;6304607;22;20419;-86
2020/12/02 14:05:52;;;;;;;5.32;2.38;;;;;;;;;;6306548;22;19995;-88
2020/12/02 14:08:19;;;;;;;5.30;2.60;;;;;;;;;;6304639;22;20458;-89
2020/12/02 14:10:45;;;;;;;7.78;3.13;;;;;;;;;;6307160;22;20161;-89
2020/12/02 14:13:11;;;;;;;6.97;2.55;;;;;;;;;;6307705;22;20346;-89
2020/12/02 14:15:40;;;;;;;2.58;2.00;;;;;;;;;;6305780;22;20069;-88
2020/12/02 14:18:07;;;;;;;4.60;2.58;;;;;;;;;;6308284;22;20003;-91
2020/12/02 14:20:33;;;;;;;4.63;3.78;;;;;;;;;;6305685;22;20082;-90
2020/12/02 14:23:00;;;;;;;5.47;2.75;;;;;;;;;;6306361;22;20026;-88
2020/12/02 14:25:26;;;;;;;4.05;2.38;;;;;;;;;;6307147;22;19999;-86
2020/12/02 14:27:53;;;;;;;4.80;2.55;;;;;;;;;;6308102;22;20003;-88
2020/12/02 14:30:24;;;;;;;7.50;2.30;;;;;;;;;;6307381;22;20011;-87
2020/12/02 14:32:51;;;;;;;7.78;2.58;;;;;;;;;;6306699;22;20026;-86
2020/12/02 14:35:19;;;;;;;4.85;2.58;;;;;;;;;;6305210;22;20011;-85
2020/12/02 14:37:45;;;;;;;4.13;3.13;;;;;;;;;;6304292;22;20426;-86
2020/12/02 14:40:12;;;;;;;5.00;1.92;;;;;;;;;;6304041;22;20319;-87
2020/12/02 14:42:38;;;;;;;5.85;2.25;;;;;;;;;;6306195;22;20074;-87
2020/12/02 14:45:07;;;;;;;4.65;3.08;;;;;;;;;;6306873;22;20438;-88
2020/12/02 14:47:33;;;;;;;6.10;2.25;;;;;;;;;;6306389;22;20061;-88
2020/12/02 14:49:59;;;;;;;3.95;2.67;;;;;;;;;;6306876;22;20009;-88
2020/12/02 14:52:25;;;;;;;4.65;2.45;;;;;;;;;;6308449;22;20037;-88
2020/12/02 14:54:51;;;;;;;3.17;1.63;;;;;;;;;;6306775;22;20037;-87
2020/12/02 14:57:26;;;;;;;3.67;2.47;;;;;;;;;;6305820;22;20113;-87
2020/12/02 15:00:11;;;;;;;5.13;2.47;;;;;;;;;;6302262;22;20026;-88
2020/12/02 15:02:38;;;;;;;7.22;2.40;;;;;;;;;;6307729;22;19999;-88